Providence, Rhode Island
Traffic Map
Current Weather Conditions
Providence, Rhode Island
Overcast
Overcast
19°
Feels Like: 19°
Wind Chill: 19° Ceiling: 6500
Heat Index: 19° Visibility: 10mi
Dew Point: 17° Wind: 7mph
Humidity: 84% Direction: 40° (NE)
Pressure: 30.07in Gusts: 0mph
Raw Report DataKPVD 220551Z AUTO 04006KT 10SM OVC065 19/17 A3007 RMK AO2 SLP181 T01940167 10211 20194 56004
Traffic Incident Summary
Active as of:
Severity:
Category:
InformationThere was an issue retrieving the traffic information for this location. Please try a different location or try again shortly.
Advertisements
Track Severe Weather on mobile